sensor_id;sensor_type;location;lat;lon;timestamp;P1;P2;P0
65680;PMS5003;61747;54.966;73.394;2022-09-16T00:00:59;21.50;16.50;11.75
65680;PMS5003;61747;54.966;73.394;2022-09-16T00:03:34;20.00;16.50;9.00
65680;PMS5003;61747;54.966;73.394;2022-09-16T00:06:00;20.00;16.33;7.00
65680;PMS5003;61747;54.966;73.394;2022-09-16T00:08:35;18.00;16.00;6.00
65680;PMS5003;61747;54.966;73.394;2022-09-16T00:11:11;15.50;15.25;5.50
65680;PMS5003;61747;54.966;73.394;2022-09-16T00:13:37;16.50;15.75;7.25
65680;PMS5003;61747;54.966;73.394;2022-09-16T00:16:05;17.00;17.00;8.67
65680;PMS5003;61747;54.966;73.394;2022-09-16T00:18:31;19.50;17.00;8.00
65680;PMS5003;61747;54.966;73.394;2022-09-16T00:20:57;21.00;19.00;9.00
65680;PMS5003;61747;54.966;73.394;2022-09-16T00:23:33;20.75;18.00;10.00
65680;PMS5003;61747;54.966;73.394;2022-09-16T00:25:59;23.00;19.75;11.25
65680;PMS5003;61747;54.966;73.394;2022-09-16T00:28:34;21.00;17.75;11.25
65680;PMS5003;61747;54.966;73.394;2022-09-16T00:31:00;22.67;19.00;12.00
65680;PMS5003;61747;54.966;73.394;2022-09-16T00:33:26;24.00;18.00;13.00
65680;PMS5003;61747;54.966;73.394;2022-09-16T00:36:03;23.50;17.00;12.00
65680;PMS5003;61747;54.966;73.394;2022-09-16T00:38:29;20.00;17.00;8.25
65680;PMS5003;61747;54.966;73.394;2022-09-16T00:41:01;16.00;13.25;6.00
65680;PMS5003;61747;54.966;73.394;2022-09-16T00:43:26;17.00;15.00;6.00
65680;PMS5003;61747;54.966;73.394;2022-09-16T00:45:56;16.00;14.67;5.00
65680;PMS5003;61747;54.966;73.394;2022-09-16T00:48:33;13.00;13.00;4.00
65680;PMS5003;61747;54.966;73.394;2022-09-16T00:51:00;13.00;10.67;4.00
65680;PMS5003;61747;54.966;73.394;2022-09-16T00:53:41;14.00;11.00;4.00
65680;PMS5003;61747;54.966;73.394;2022-09-16T00:56:09;16.50;14.50;7.00
65680;PMS5003;61747;54.966;73.394;2022-09-16T00:58:38;17.00;15.00;6.00
65680;PMS5003;61747;54.966;73.394;2022-09-16T01:01:12;14.00;13.00;5.00
65680;PMS5003;61747;54.966;73.394;2022-09-16T01:03:43;10.50;7.00;2.75
65680;PMS5003;61747;54.966;73.394;2022-09-16T01:06:12;9.00;6.00;3.00
65680;PMS5003;61747;54.966;73.394;2022-09-16T01:08:40;6.00;6.00;3.00
65680;PMS5003;61747;54.966;73.394;2022-09-16T01:11:11;7.75;6.75;3.00
65680;PMS5003;61747;54.966;73.394;2022-09-16T01:13:37;9.00;7.67;3.00
65680;PMS5003;61747;54.966;73.394;2022-09-16T01:16:05;7.00;6.50;4.00
65680;PMS5003;61747;54.966;73.394;2022-09-16T01:18:43;11.00;8.00;4.00
65680;PMS5003;61747;54.966;73.394;2022-09-16T01:28:47;13.25;12.25;7.25
65680;PMS5003;61747;54.966;73.394;2022-09-16T01:31:40;24.00;19.50;10.00
65680;PMS5003;61747;54.966;73.394;2022-09-16T01:34:30;28.00;23.75;13.00
65680;PMS5003;61747;54.966;73.394;2022-09-16T01:37:02;34.50;24.50;12.75
65680;PMS5003;61747;54.966;73.394;2022-09-16T01:48:19;12.25;10.50;4.00
65680;PMS5003;61747;54.966;73.394;2022-09-16T01:55:53;17.00;13.00;6.00
65680;PMS5003;61747;54.966;73.394;2022-09-16T01:58:26;18.00;14.00;6.00
65680;PMS5003;61747;54.966;73.394;2022-09-16T02:00:58;23.75;18.00;6.50
65680;PMS5003;61747;54.966;73.394;2022-09-16T02:03:31;20.00;16.50;6.50
65680;PMS5003;61747;54.966;73.394;2022-09-16T02:06:08;21.25;20.50;8.75
65680;PMS5003;61747;54.966;73.394;2022-09-16T02:08:39;22.25;21.00;11.00
65680;PMS5003;61747;54.966;73.394;2022-09-16T02:11:06;23.25;18.00;9.00
65680;PMS5003;61747;54.966;73.394;2022-09-16T02:13:34;21.00;18.00;8.50
65680;PMS5003;61747;54.966;73.394;2022-09-16T02:16:12;25.50;21.00;10.00
65680;PMS5003;61747;54.966;73.394;2022-09-16T02:18:44;25.75;20.00;10.00
65680;PMS5003;61747;54.966;73.394;2022-09-16T02:21:14;26.75;22.00;12.00
65680;PMS5003;61747;54.966;73.394;2022-09-16T02:23:41;25.50;22.50;12.50
65680;PMS5003;61747;54.966;73.394;2022-09-16T02:26:08;26.50;25.50;13.50
65680;PMS5003;61747;54.966;73.394;2022-09-16T02:28:36;37.25;29.25;17.75
65680;PMS5003;61747;54.966;73.394;2022-09-16T02:31:07;39.75;31.25;19.00
65680;PMS5003;61747;54.966;73.394;2022-09-16T02:33:53;40.00;31.00;19.00
65680;PMS5003;61747;54.966;73.394;2022-09-16T02:36:21;39.50;28.50;18.50
65680;PMS5003;61747;54.966;73.394;2022-09-16T02:38:57;38.00;29.75;19.50
65680;PMS5003;61747;54.966;73.394;2022-09-16T02:41:26;38.75;30.50;19.50
65680;PMS5003;61747;54.966;73.394;2022-09-16T02:44:02;36.75;28.25;19.00
65680;PMS5003;61747;54.966;73.394;2022-09-16T02:46:34;40.00;30.75;19.25
65680;PMS5003;61747;54.966;73.394;2022-09-16T02:51:52;40.00;30.67;19.00
65680;PMS5003;61747;54.966;73.394;2022-09-16T02:57:14;39.50;29.00;18.50
65680;PMS5003;61747;54.966;73.394;2022-09-16T02:59:46;42.00;32.00;19.25
65680;PMS5003;61747;54.966;73.394;2022-09-16T03:02:11;46.00;36.33;22.67
65680;PMS5003;61747;54.966;73.394;2022-09-16T03:04:37;51.50;38.00;24.00
65680;PMS5003;61747;54.966;73.394;2022-09-16T03:07:13;54.75;41.00;25.00
65680;PMS5003;61747;54.966;73.394;2022-09-16T03:09:41;52.50;41.00;25.00
65680;PMS5003;61747;54.966;73.394;2022-09-16T03:12:26;51.50;40.00;24.00
65680;PMS5003;61747;54.966;73.394;2022-09-16T03:20:36;50.00;38.00;24.00
65680;PMS5003;61747;54.966;73.394;2022-09-16T03:23:10;50.00;38.25;24.00
65680;PMS5003;61747;54.966;73.394;2022-09-16T03:28:23;45.50;35.50;23.50
65680;PMS5003;61747;54.966;73.394;2022-09-16T03:31:02;43.00;33.00;21.00
65680;PMS5003;61747;54.966;73.394;2022-09-16T03:33:34;41.00;33.00;21.00
65680;PMS5003;61747;54.966;73.394;2022-09-16T03:36:03;39.50;30.00;19.75
65680;PMS5003;61747;54.966;73.394;2022-09-16T03:38:30;38.50;29.00;19.00
65680;PMS5003;61747;54.966;73.394;2022-09-16T03:40:58;39.00;29.50;20.00
65680;PMS5003;61747;54.966;73.394;2022-09-16T03:43:23;34.33;27.00;19.00
65680;PMS5003;61747;54.966;73.394;2022-09-16T03:45:50;27.00;24.00;16.00
65680;PMS5003;61747;54.966;73.394;2022-09-16T03:48:15;24.50;20.00;12.00
65680;PMS5003;61747;54.966;73.394;2022-09-16T03:50:41;24.00;21.00;12.00
65680;PMS5003;61747;54.966;73.394;2022-09-16T03:53:07;22.00;19.00;11.00
65680;PMS5003;61747;54.966;73.394;2022-09-16T03:55:32;18.00;16.00;7.00
65680;PMS5003;61747;54.966;73.394;2022-09-16T03:57:58;17.67;14.00;6.00
65680;PMS5003;61747;54.966;73.394;2022-09-16T04:00:24;17.00;12.50;5.00
65680;PMS5003;61747;54.966;73.394;2022-09-16T04:02:49;16.00;14.00;7.00
65680;PMS5003;61747;54.966;73.394;2022-09-16T04:05:15;16.67;11.33;6.00
65680;PMS5003;61747;54.966;73.394;2022-09-16T04:07:41;15.00;13.33;5.00
65680;PMS5003;61747;54.966;73.394;2022-09-16T04:10:06;17.33;17.00;7.00
65680;PMS5003;61747;54.966;73.394;2022-09-16T04:12:32;19.33;17.67;9.00
65680;PMS5003;61747;54.966;73.394;2022-09-16T04:15:03;19.25;18.25;10.00
65680;PMS5003;61747;54.966;73.394;2022-09-16T04:17:32;20.00;17.00;8.50
65680;PMS5003;61747;54.966;73.394;2022-09-16T04:19:57;19.25;16.50;8.00
65680;PMS5003;61747;54.966;73.394;2022-09-16T04:22:28;20.50;17.50;7.00
65680;PMS5003;61747;54.966;73.394;2022-09-16T04:24:55;21.50;18.00;7.00
65680;PMS5003;61747;54.966;73.394;2022-09-16T04:27:21;19.75;17.00;7.00
65680;PMS5003;61747;54.966;73.394;2022-09-16T04:29:46;18.33;16.00;7.00
65680;PMS5003;61747;54.966;73.394;2022-09-16T04:32:13;22.25;18.75;7.00
65680;PMS5003;61747;54.966;73.394;2022-09-16T04:34:38;20.00;17.00;8.00
65680;PMS5003;61747;54.966;73.394;2022-09-16T04:37:04;21.00;18.00;8.00
65680;PMS5003;61747;54.966;73.394;2022-09-16T04:39:30;19.00;17.00;7.00
65680;PMS5003;61747;54.966;73.394;2022-09-16T04:41:55;18.00;18.00;6.67
65680;PMS5003;61747;54.966;73.394;2022-09-16T04:44:21;19.00;17.00;7.00
65680;PMS5003;61747;54.966;73.394;2022-09-16T04:46:47;13.67;12.67;4.00
65680;PMS5003;61747;54.966;73.394;2022-09-16T04:49:13;8.00;7.75;3.00
65680;PMS5003;61747;54.966;73.394;2022-09-16T04:51:38;6.00;5.00;2.00
65680;PMS5003;61747;54.966;73.394;2022-09-16T04:54:04;4.00;4.00;1.00
65680;PMS5003;61747;54.966;73.394;2022-09-16T04:56:31;4.33;4.00;2.00
65680;PMS5003;61747;54.966;73.394;2022-09-16T04:58:58;6.00;5.00;2.00
65680;PMS5003;61747;54.966;73.394;2022-09-16T05:01:25;7.00;6.75;2.00
65680;PMS5003;61747;54.966;73.394;2022-09-16T05:03:57;4.00;4.00;2.00
65680;PMS5003;61747;54.966;73.394;2022-09-16T05:06:24;5.00;4.25;2.00
65680;PMS5003;61747;54.966;73.394;2022-09-16T05:08:55;3.00;3.00;0.00
65680;PMS5003;61747;54.966;73.394;2022-09-16T05:11:28;2.00;2.00;0.00
65680;PMS5003;61747;54.966;73.394;2022-09-16T05:13:56;3.50;2.00;0.00
65680;PMS5003;61747;54.966;73.394;2022-09-16T05:16:32;4.50;3.50;1.00
65680;PMS5003;61747;54.966;73.394;2022-09-16T05:18:59;4.00;3.00;1.00
65680;PMS5003;61747;54.966;73.394;2022-09-16T05:21:26;4.00;3.75;0.00
65680;PMS5003;61747;54.966;73.394;2022-09-16T05:23:58;3.00;2.75;1.00
65680;PMS5003;61747;54.966;73.394;2022-09-16T05:26:25;6.75;5.50;1.25
65680;PMS5003;61747;54.966;73.394;2022-09-16T05:28:51;7.50;5.25;1.00
65680;PMS5003;61747;54.966;73.394;2022-09-16T05:33:43;3.00;3.00;1.00
65680;PMS5003;61747;54.966;73.394;2022-09-16T05:36:13;2.00;2.00;1.00
65680;PMS5003;61747;54.966;73.394;2022-09-16T05:38:45;4.25;3.25;0.75
65680;PMS5003;61747;54.966;73.394;2022-09-16T05:41:11;4.00;3.00;1.00
65680;PMS5003;61747;54.966;73.394;2022-09-16T05:43:37;5.00;5.00;1.00
65680;PMS5003;61747;54.966;73.394;2022-09-16T05:46:08;5.00;5.00;2.00
65680;PMS5003;61747;54.966;73.394;2022-09-16T05:48:42;3.25;3.00;1.00
65680;PMS5003;61747;54.966;73.394;2022-09-16T05:51:08;5.00;4.33;0.00
65680;PMS5003;61747;54.966;73.394;2022-09-16T05:53:35;6.00;5.00;1.00
65680;PMS5003;61747;54.966;73.394;2022-09-16T05:56:05;7.67;4.33;0.00
65680;PMS5003;61747;54.966;73.394;2022-09-16T05:58:31;6.50;6.00;2.75
65680;PMS5003;61747;54.966;73.394;2022-09-16T06:01:16;5.00;5.00;2.00
65680;PMS5003;61747;54.966;73.394;2022-09-16T06:03:42;5.00;5.00;2.00
65680;PMS5003;61747;54.966;73.394;2022-09-16T06:06:11;13.00;12.50;6.00
65680;PMS5003;61747;54.966;73.394;2022-09-16T06:08:38;15.00;11.00;4.00
65680;PMS5003;61747;54.966;73.394;2022-09-16T06:11:11;14.00;10.25;4.50
65680;PMS5003;61747;54.966;73.394;2022-09-16T06:13:46;17.00;15.00;7.25
65680;PMS5003;61747;54.966;73.394;2022-09-16T06:16:23;10.00;9.00;4.00
65680;PMS5003;61747;54.966;73.394;2022-09-16T06:18:52;5.00;5.00;2.00
65680;PMS5003;61747;54.966;73.394;2022-09-16T06:21:18;5.50;5.50;2.00
65680;PMS5003;61747;54.966;73.394;2022-09-16T06:23:48;5.00;5.00;2.75
65680;PMS5003;61747;54.966;73.394;2022-09-16T06:26:24;3.00;3.00;1.00
65680;PMS5003;61747;54.966;73.394;2022-09-16T06:28:50;5.75;5.00;1.00
65680;PMS5003;61747;54.966;73.394;2022-09-16T06:31:17;8.00;4.00;3.00
65680;PMS5003;61747;54.966;73.394;2022-09-16T06:33:43;3.00;3.00;1.00
65680;PMS5003;61747;54.966;73.394;2022-09-16T06:36:12;3.75;3.75;0.00
65680;PMS5003;61747;54.966;73.394;2022-09-16T06:38:46;7.50;7.50;3.25
65680;PMS5003;61747;54.966;73.394;2022-09-16T06:41:12;6.25;5.75;1.00
65680;PMS5003;61747;54.966;73.394;2022-09-16T06:43:39;6.75;6.75;1.00
65680;PMS5003;61747;54.966;73.394;2022-09-16T06:46:08;8.00;7.00;3.00
65680;PMS5003;61747;54.966;73.394;2022-09-16T06:48:43;8.25;5.00;2.00
65680;PMS5003;61747;54.966;73.394;2022-09-16T06:51:15;6.00;5.00;3.00
65680;PMS5003;61747;54.966;73.394;2022-09-16T06:53:41;4.50;4.50;2.00
65680;PMS5003;61747;54.966;73.394;2022-09-16T06:56:13;6.25;5.00;2.00
65680;PMS5003;61747;54.966;73.394;2022-09-16T06:58:49;4.00;4.00;2.00
65680;PMS5003;61747;54.966;73.394;2022-09-16T07:01:19;5.00;5.00;2.00
65680;PMS5003;61747;54.966;73.394;2022-09-16T07:03:46;5.00;4.00;1.00
65680;PMS5003;61747;54.966;73.394;2022-09-16T07:06:13;5.00;4.00;1.00
65680;PMS5003;61747;54.966;73.394;2022-09-16T07:08:43;5.75;4.75;1.25
65680;PMS5003;61747;54.966;73.394;2022-09-16T07:11:10;5.00;4.00;2.00
65680;PMS5003;61747;54.966;73.394;2022-09-16T07:13:36;4.75;3.00;2.00
65680;PMS5003;61747;54.966;73.394;2022-09-16T07:16:03;4.00;4.00;2.00
65680;PMS5003;61747;54.966;73.394;2022-09-16T07:18:39;4.00;4.00;1.00
65680;PMS5003;61747;54.966;73.394;2022-09-16T07:21:15;4.75;4.75;1.00
65680;PMS5003;61747;54.966;73.394;2022-09-16T07:23:41;4.00;3.00;1.00
65680;PMS5003;61747;54.966;73.394;2022-09-16T07:26:16;4.25;4.25;2.00
65680;PMS5003;61747;54.966;73.394;2022-09-16T07:28:43;5.00;4.00;2.00
65680;PMS5003;61747;54.966;73.394;2022-09-16T07:31:14;4.00;3.00;2.00
65680;PMS5003;61747;54.966;73.394;2022-09-16T07:33:43;4.50;4.00;0.25
65680;PMS5003;61747;54.966;73.394;2022-09-16T07:36:15;2.00;2.00;0.00
65680;PMS5003;61747;54.966;73.394;2022-09-16T07:38:46;2.00;1.00;0.00
65680;PMS5003;61747;54.966;73.394;2022-09-16T07:41:23;3.25;2.50;0.00
65680;PMS5003;61747;54.966;73.394;2022-09-16T07:43:50;3.00;3.00;0.00
65680;PMS5003;61747;54.966;73.394;2022-09-16T07:46:22;3.00;3.00;0.00
65680;PMS5003;61747;54.966;73.394;2022-09-16T07:48:48;3.75;3.75;0.00
65680;PMS5003;61747;54.966;73.394;2022-09-16T07:51:17;1.00;0.00;0.00
65680;PMS5003;61747;54.966;73.394;2022-09-16T07:53:43;4.00;2.50;0.00
65680;PMS5003;61747;54.966;73.394;2022-09-16T07:58:35;3.00;2.33;1.00
65680;PMS5003;61747;54.966;73.394;2022-09-16T08:01:03;3.00;2.00;0.00
65680;PMS5003;61747;54.966;73.394;2022-09-16T08:03:35;3.00;3.00;0.00
65680;PMS5003;61747;54.966;73.394;2022-09-16T08:06:02;0.75;0.75;0.00
65680;PMS5003;61747;54.966;73.394;2022-09-16T08:08:28;2.00;0.00;0.00
65680;PMS5003;61747;54.966;73.394;2022-09-16T08:10:55;1.00;0.00;0.00
65680;PMS5003;61747;54.966;73.394;2022-09-16T08:13:21;1.00;1.00;0.00
65680;PMS5003;61747;54.966;73.394;2022-09-16T08:15:48;1.00;1.00;0.00
65680;PMS5003;61747;54.966;73.394;2022-09-16T08:18:13;1.00;1.00;0.00
65680;PMS5003;61747;54.966;73.394;2022-09-16T08:20:39;1.00;1.00;0.00
65680;PMS5003;61747;54.966;73.394;2022-09-16T08:23:04;0.00;0.00;0.00
65680;PMS5003;61747;54.966;73.394;2022-09-16T08:25:30;0.00;0.00;0.00
65680;PMS5003;61747;54.966;73.394;2022-09-16T08:28:13;0.00;0.00;0.00
65680;PMS5003;61747;54.966;73.394;2022-09-16T08:30:47;1.50;0.00;0.00
65680;PMS5003;61747;54.966;73.394;2022-09-16T08:33:17;0.00;0.00;0.00
65680;PMS5003;61747;54.966;73.394;2022-09-16T08:35:46;0.00;0.00;0.00
65680;PMS5003;61747;54.966;73.394;2022-09-16T08:38:22;1.00;0.00;0.00
65680;PMS5003;61747;54.966;73.394;2022-09-16T08:40:48;1.00;0.00;0.00
65680;PMS5003;61747;54.966;73.394;2022-09-16T08:45:52;0.00;0.00;0.00
65680;PMS5003;61747;54.966;73.394;2022-09-16T08:48:29;2.75;2.00;0.00
65680;PMS5003;61747;54.966;73.394;2022-09-16T08:51:08;3.00;0.00;0.00
65680;PMS5003;61747;54.966;73.394;2022-09-16T08:53:50;1.75;0.75;0.00
65680;PMS5003;61747;54.966;73.394;2022-09-16T08:56:19;4.00;3.75;0.00
65680;PMS5003;61747;54.966;73.394;2022-09-16T08:58:51;3.00;2.00;0.00
65680;PMS5003;61747;54.966;73.394;2022-09-16T09:01:34;1.00;1.00;0.00
65680;PMS5003;61747;54.966;73.394;2022-09-16T09:04:12;1.00;1.00;0.00
65680;PMS5003;61747;54.966;73.394;2022-09-16T09:09:26;2.00;2.00;0.00
65680;PMS5003;61747;54.966;73.394;2022-09-16T09:15:00;1.50;1.50;0.00
65680;PMS5003;61747;54.966;73.394;2022-09-16T09:17:35;0.00;0.00;0.00
65680;PMS5003;61747;54.966;73.394;2022-09-16T09:20:18;1.00;1.00;0.00
65680;PMS5003;61747;54.966;73.394;2022-09-16T09:22:54;1.00;0.00;0.00
65680;PMS5003;61747;54.966;73.394;2022-09-16T09:28:01;2.00;2.00;0.00
65680;PMS5003;61747;54.966;73.394;2022-09-16T09:30:30;1.00;1.00;0.00
65680;PMS5003;61747;54.966;73.394;2022-09-16T09:35:55;2.00;2.00;0.00
65680;PMS5003;61747;54.966;73.394;2022-09-16T09:40:52;1.00;0.50;0.00
65680;PMS5003;61747;54.966;73.394;2022-09-16T09:43:29;1.00;0.00;0.00
65680;PMS5003;61747;54.966;73.394;2022-09-16T09:48:32;0.00;0.00;0.00
65680;PMS5003;61747;54.966;73.394;2022-09-16T09:51:03;1.00;0.00;0.00
65680;PMS5003;61747;54.966;73.394;2022-09-16T09:53:38;1.75;0.75;0.00
65680;PMS5003;61747;54.966;73.394;2022-09-16T09:56:14;0.00;0.00;0.00
65680;PMS5003;61747;54.966;73.394;2022-09-16T09:58:45;1.00;0.00;0.00
65680;PMS5003;61747;54.966;73.394;2022-09-16T10:01:13;1.25;0.25;0.00
65680;PMS5003;61747;54.966;73.394;2022-09-16T10:03:40;2.50;1.00;0.00
65680;PMS5003;61747;54.966;73.394;2022-09-16T10:06:06;1.00;1.00;0.00
65680;PMS5003;61747;54.966;73.394;2022-09-16T10:08:35;5.25;3.00;0.00
65680;PMS5003;61747;54.966;73.394;2022-09-16T10:11:14;2.00;1.00;0.00
65680;PMS5003;61747;54.966;73.394;2022-09-16T10:13:46;2.00;2.00;0.00
65680;PMS5003;61747;54.966;73.394;2022-09-16T10:16:13;3.00;2.00;0.00
65680;PMS5003;61747;54.966;73.394;2022-09-16T10:18:57;2.00;2.00;0.00
65680;PMS5003;61747;54.966;73.394;2022-09-16T10:21:35;1.00;1.00;0.00
65680;PMS5003;61747;54.966;73.394;2022-09-16T10:24:23;1.25;1.00;0.00
65680;PMS5003;61747;54.966;73.394;2022-09-16T10:27:02;2.00;1.00;0.00
65680;PMS5003;61747;54.966;73.394;2022-09-16T10:29:41;3.00;1.25;0.00
65680;PMS5003;61747;54.966;73.394;2022-09-16T10:32:07;1.00;1.00;0.00
65680;PMS5003;61747;54.966;73.394;2022-09-16T10:34:35;0.00;0.00;0.00
65680;PMS5003;61747;54.966;73.394;2022-09-16T10:39:32;0.00;0.00;0.00
65680;PMS5003;61747;54.966;73.394;2022-09-16T10:41:58;1.00;0.00;0.00
65680;PMS5003;61747;54.966;73.394;2022-09-16T10:44:26;2.00;0.00;0.00
65680;PMS5003;61747;54.966;73.394;2022-09-16T10:46:53;0.00;0.00;0.00
65680;PMS5003;61747;54.966;73.394;2022-09-16T10:49:22;0.00;0.00;0.00
65680;PMS5003;61747;54.966;73.394;2022-09-16T10:51:50;0.50;0.50;0.00
65680;PMS5003;61747;54.966;73.394;2022-09-16T10:54:23;0.00;0.00;0.00
65680;PMS5003;61747;54.966;73.394;2022-09-16T10:56:50;0.00;0.00;0.00
65680;PMS5003;61747;54.966;73.394;2022-09-16T10:59:16;1.50;1.00;0.00
65680;PMS5003;61747;54.966;73.394;2022-09-16T11:25:07;0.00;0.00;0.00
65680;PMS5003;61747;54.966;73.394;2022-09-16T11:27:44;1.00;0.00;0.00
65680;PMS5003;61747;54.966;73.394;2022-09-16T11:30:13;2.00;0.25;0.00
65680;PMS5003;61747;54.966;73.394;2022-09-16T11:32:46;1.75;1.75;0.00
65680;PMS5003;61747;54.966;73.394;2022-09-16T11:43:31;0.00;0.00;0.00
65680;PMS5003;61747;54.966;73.394;2022-09-16T11:46:04;1.00;0.00;0.00
65680;PMS5003;61747;54.966;73.394;2022-09-16T11:58:45;0.00;0.00;0.00
65680;PMS5003;61747;54.966;73.394;2022-09-16T12:01:16;2.00;0.00;0.00
65680;PMS5003;61747;54.966;73.394;2022-09-16T12:03:52;2.00;0.00;0.00
65680;PMS5003;61747;54.966;73.394;2022-09-16T12:06:20;2.00;1.00;0.00
65680;PMS5003;61747;54.966;73.394;2022-09-16T12:09:01;0.00;0.00;0.00
65680;PMS5003;61747;54.966;73.394;2022-09-16T12:11:31;0.00;0.00;0.00
65680;PMS5003;61747;54.966;73.394;2022-09-16T12:19:02;0.00;0.00;0.00
65680;PMS5003;61747;54.966;73.394;2022-09-16T12:21:36;1.25;1.25;0.00
65680;PMS5003;61747;54.966;73.394;2022-09-16T12:24:08;5.00;4.00;0.00
65680;PMS5003;61747;54.966;73.394;2022-09-16T12:26:38;3.00;3.00;0.00
65680;PMS5003;61747;54.966;73.394;2022-09-16T12:29:08;4.50;3.00;0.00
65680;PMS5003;61747;54.966;73.394;2022-09-16T12:31:37;3.00;2.00;0.00
65680;PMS5003;61747;54.966;73.394;2022-09-16T12:34:10;1.00;1.00;0.00
65680;PMS5003;61747;54.966;73.394;2022-09-16T12:36:38;3.50;1.25;0.00
65680;PMS5003;61747;54.966;73.394;2022-09-16T12:39:16;2.00;1.00;0.00
65680;PMS5003;61747;54.966;73.394;2022-09-16T12:49:55;10.75;9.00;5.00
65680;PMS5003;61747;54.966;73.394;2022-09-16T13:00:18;8.50;6.25;2.00
65680;PMS5003;61747;54.966;73.394;2022-09-16T13:02:46;6.00;5.00;1.00
65680;PMS5003;61747;54.966;73.394;2022-09-16T13:05:34;6.00;5.00;3.00
65680;PMS5003;61747;54.966;73.394;2022-09-16T13:08:06;7.75;7.00;3.00
65680;PMS5003;61747;54.966;73.394;2022-09-16T13:10:42;6.25;5.00;2.00
65680;PMS5003;61747;54.966;73.394;2022-09-16T13:13:19;6.00;4.50;2.75
65680;PMS5003;61747;54.966;73.394;2022-09-16T13:15:53;5.00;5.00;2.00
65680;PMS5003;61747;54.966;73.394;2022-09-16T13:18:21;8.75;6.50;2.50
65680;PMS5003;61747;54.966;73.394;2022-09-16T13:20:58;6.00;6.00;2.00
65680;PMS5003;61747;54.966;73.394;2022-09-16T13:23:30;6.25;6.00;3.00
65680;PMS5003;61747;54.966;73.394;2022-09-16T13:25:59;6.50;6.25;3.00
65680;PMS5003;61747;54.966;73.394;2022-09-16T13:28:34;12.00;9.00;4.00
65680;PMS5003;61747;54.966;73.394;2022-09-16T13:33:39;13.25;11.00;5.00
65680;PMS5003;61747;54.966;73.394;2022-09-16T13:38:51;16.00;11.50;5.00
65680;PMS5003;61747;54.966;73.394;2022-09-16T13:43:53;12.00;9.00;4.00
65680;PMS5003;61747;54.966;73.394;2022-09-16T13:46:26;14.25;11.00;5.00
65680;PMS5003;61747;54.966;73.394;2022-09-16T13:48:55;14.00;10.00;4.00
65680;PMS5003;61747;54.966;73.394;2022-09-16T13:51:21;12.00;8.00;4.00
65680;PMS5003;61747;54.966;73.394;2022-09-16T13:53:48;10.75;6.00;3.50
65680;PMS5003;61747;54.966;73.394;2022-09-16T13:58:53;20.00;17.00;8.75
65680;PMS5003;61747;54.966;73.394;2022-09-16T14:01:33;22.50;20.00;9.75
65680;PMS5003;61747;54.966;73.394;2022-09-16T14:04:13;16.25;16.00;5.00
65680;PMS5003;61747;54.966;73.394;2022-09-16T14:09:30;9.25;9.00;4.00
65680;PMS5003;61747;54.966;73.394;2022-09-16T14:14:44;6.50;6.00;4.00
65680;PMS5003;61747;54.966;73.394;2022-09-16T14:17:22;9.50;8.50;4.00
65680;PMS5003;61747;54.966;73.394;2022-09-16T14:19:50;7.50;6.00;4.00
65680;PMS5003;61747;54.966;73.394;2022-09-16T14:22:18;7.00;5.00;5.00
65680;PMS5003;61747;54.966;73.394;2022-09-16T14:24:54;9.75;7.50;4.25
65680;PMS5003;61747;54.966;73.394;2022-09-16T14:27:21;8.00;6.00;5.00
65680;PMS5003;61747;54.966;73.394;2022-09-16T14:29:54;7.00;6.00;5.00
65680;PMS5003;61747;54.966;73.394;2022-09-16T14:32:29;7.75;6.00;3.00
65680;PMS5003;61747;54.966;73.394;2022-09-16T14:34:55;7.00;5.50;3.00
65680;PMS5003;61747;54.966;73.394;2022-09-16T14:37:23;7.25;5.00;4.00
65680;PMS5003;61747;54.966;73.394;2022-09-16T14:40:03;5.00;5.00;3.00
65680;PMS5003;61747;54.966;73.394;2022-09-16T14:42:33;5.00;5.00;3.00
65680;PMS5003;61747;54.966;73.394;2022-09-16T14:44:59;6.67;5.00;2.00
65680;PMS5003;61747;54.966;73.394;2022-09-16T14:47:35;8.00;5.25;2.25
65680;PMS5003;61747;54.966;73.394;2022-09-16T14:50:10;11.00;10.00;4.00
65680;PMS5003;61747;54.966;73.394;2022-09-16T14:52:36;20.50;17.75;8.25
65680;PMS5003;61747;54.966;73.394;2022-09-16T14:55:24;22.00;18.00;9.00
65680;PMS5003;61747;54.966;73.394;2022-09-16T14:57:48;20.50;18.00;8.00
65680;PMS5003;61747;54.966;73.394;2022-09-16T15:00:15;16.50;16.00;6.00
65680;PMS5003;61747;54.966;73.394;2022-09-16T15:05:26;15.00;11.00;5.00
65680;PMS5003;61747;54.966;73.394;2022-09-16T15:07:57;16.00;12.00;5.00
65680;PMS5003;61747;54.966;73.394;2022-09-16T15:10:32;17.00;12.00;6.00
65680;PMS5003;61747;54.966;73.394;2022-09-16T15:12:58;16.00;13.33;5.00
65680;PMS5003;61747;54.966;73.394;2022-09-16T15:15:25;20.00;15.25;8.00
65680;PMS5003;61747;54.966;73.394;2022-09-16T15:18:02;21.00;18.00;10.00
65680;PMS5003;61747;54.966;73.394;2022-09-16T15:20:33;21.25;18.50;8.00
65680;PMS5003;61747;54.966;73.394;2022-09-16T15:23:04;21.00;18.00;7.00
65680;PMS5003;61747;54.966;73.394;2022-09-16T15:25:49;19.00;16.00;8.00
65680;PMS5003;61747;54.966;73.394;2022-09-16T15:28:16;20.50;18.75;8.00
65680;PMS5003;61747;54.966;73.394;2022-09-16T15:30:46;23.00;20.00;9.00
65680;PMS5003;61747;54.966;73.394;2022-09-16T15:33:26;23.75;19.00;9.00
65680;PMS5003;61747;54.966;73.394;2022-09-16T15:35:52;22.75;17.50;8.00
65680;PMS5003;61747;54.966;73.394;2022-09-16T15:38:28;20.25;16.00;7.50
65680;PMS5003;61747;54.966;73.394;2022-09-16T15:41:04;20.75;16.00;8.00
65680;PMS5003;61747;54.966;73.394;2022-09-16T15:43:37;23.50;17.00;7.00
65680;PMS5003;61747;54.966;73.394;2022-09-16T15:46:11;21.00;17.00;9.00
65680;PMS5003;61747;54.966;73.394;2022-09-16T15:49:01;20.00;19.00;5.50
65680;PMS5003;61747;54.966;73.394;2022-09-16T15:51:31;17.00;16.00;5.00
65680;PMS5003;61747;54.966;73.394;2022-09-16T15:54:05;17.00;14.50;6.00
65680;PMS5003;61747;54.966;73.394;2022-09-16T15:59:01;17.00;14.00;6.50
65680;PMS5003;61747;54.966;73.394;2022-09-16T16:01:47;19.00;15.00;7.00
65680;PMS5003;61747;54.966;73.394;2022-09-16T16:04:21;18.25;14.50;6.00
65680;PMS5003;61747;54.966;73.394;2022-09-16T16:06:59;18.00;14.00;5.00
65680;PMS5003;61747;54.966;73.394;2022-09-16T16:09:42;16.00;14.00;6.00
65680;PMS5003;61747;54.966;73.394;2022-09-16T16:12:13;18.00;13.50;5.00
65680;PMS5003;61747;54.966;73.394;2022-09-16T16:14:41;18.50;14.00;5.25
65680;PMS5003;61747;54.966;73.394;2022-09-16T16:17:20;16.00;12.75;6.00
65680;PMS5003;61747;54.966;73.394;2022-09-16T16:19:49;16.75;13.00;7.00
65680;PMS5003;61747;54.966;73.394;2022-09-16T16:22:15;18.33;13.33;6.67
65680;PMS5003;61747;54.966;73.394;2022-09-16T16:24:42;18.00;14.75;8.00
65680;PMS5003;61747;54.966;73.394;2022-09-16T16:27:08;16.00;15.00;4.00
65680;PMS5003;61747;54.966;73.394;2022-09-16T16:29:34;18.00;14.00;5.75
65680;PMS5003;61747;54.966;73.394;2022-09-16T16:32:04;16.50;14.00;5.50
65680;PMS5003;61747;54.966;73.394;2022-09-16T16:34:31;13.00;11.25;4.00
65680;PMS5003;61747;54.966;73.394;2022-09-16T16:37:08;13.00;11.50;4.00
65680;PMS5003;61747;54.966;73.394;2022-09-16T16:39:35;9.00;8.25;3.00
65680;PMS5003;61747;54.966;73.394;2022-09-16T16:42:01;7.00;5.75;1.50